createdAt,value
2022-08-02T00:00:35.202Z,17.40
2022-08-02T00:03:03.178Z,17.40
2022-08-02T00:05:31.111Z,17.40
2022-08-02T00:07:59.080Z,17.40
2022-08-02T00:10:28.438Z,17.40
2022-08-02T00:12:58.797Z,17.30
2022-08-02T00:15:26.926Z,17.30
2022-08-02T00:17:54.907Z,17.30
2022-08-02T00:20:22.806Z,17.30
2022-08-02T00:22:50.749Z,17.30
2022-08-02T00:25:18.628Z,17.30
2022-08-02T00:27:47.894Z,17.30
2022-08-02T00:30:15.773Z,17.30
2022-08-02T00:32:43.734Z,17.30
2022-08-02T00:35:11.699Z,17.20
2022-08-02T00:37:41.012Z,17.50
2022-08-02T00:40:10.466Z,17.20
2022-08-02T00:42:38.686Z,17.20
2022-08-02T00:45:09.359Z,17.10
2022-08-02T00:47:37.270Z,17.10
2022-08-02T00:50:06.214Z,17.20
2022-08-02T00:52:34.142Z,17.10
2022-08-02T00:55:02.057Z,17.10
2022-08-02T00:57:29.958Z,17.00
2022-08-02T00:59:57.874Z,17.00
2022-08-02T01:02:27.124Z,17.00
2022-08-02T01:04:55.030Z,16.90
2022-08-02T01:07:22.941Z,17.00
2022-08-02T01:09:50.880Z,16.90
2022-08-02T01:12:18.825Z,16.90
2022-08-02T01:14:49.401Z,16.90
2022-08-02T01:17:24.061Z,16.80
2022-08-02T01:20:00.979Z,16.80
2022-08-02T01:23:02.606Z,16.80
2022-08-02T01:25:54.482Z,16.70
2022-08-02T01:28:37.262Z,16.70
2022-08-02T01:31:13.791Z,16.70
2022-08-02T01:33:46.987Z,16.60
2022-08-02T01:36:16.720Z,16.60
2022-08-02T01:38:49.244Z,16.60
2022-08-02T01:41:20.721Z,16.60
2022-08-02T01:43:54.777Z,16.50
2022-08-02T01:46:24.081Z,16.50
2022-08-02T01:48:54.466Z,16.50
2022-08-02T01:51:43.961Z,16.50
2022-08-02T01:54:15.546Z,16.40
2022-08-02T01:56:44.912Z,16.40
2022-08-02T01:59:18.060Z,16.50
2022-08-02T02:01:49.135Z,16.40
2022-08-02T02:04:18.514Z,16.40
2022-08-02T02:06:47.525Z,16.30
2022-08-02T02:09:17.336Z,16.30
2022-08-02T02:12:09.478Z,16.30
2022-08-02T02:14:38.445Z,16.30
2022-08-02T02:17:07.674Z,16.30
2022-08-02T02:19:37.942Z,16.20
2022-08-02T02:22:06.482Z,16.20
2022-08-02T02:24:35.791Z,16.20
2022-08-02T02:27:06.548Z,16.20
2022-08-02T02:29:35.721Z,16.20
2022-08-02T02:32:07.289Z,16.20
2022-08-02T02:34:39.029Z,16.20
2022-08-02T02:37:13.282Z,16.20
2022-08-02T02:39:43.183Z,16.20
2022-08-02T02:42:15.422Z,16.20
2022-08-02T02:44:45.462Z,16.20
2022-08-02T02:47:17.878Z,16.20
2022-08-02T02:49:47.395Z,16.20
2022-08-02T02:52:17.612Z,16.20
2022-08-02T02:54:50.025Z,16.20
2022-08-02T02:57:18.598Z,16.10
2022-08-02T02:59:49.236Z,16.20
2022-08-02T03:02:19.926Z,16.10
2022-08-02T03:04:57.474Z,16.10
2022-08-02T03:07:26.815Z,16.20
2022-08-02T03:09:55.301Z,16.10
2022-08-02T03:12:30.647Z,16.10
2022-08-02T03:14:59.888Z,16.10
2022-08-02T03:17:38.977Z,16.00
2022-08-02T03:20:10.777Z,16.30
2022-08-02T03:22:38.729Z,16.00
2022-08-02T03:25:07.896Z,16.00
2022-08-02T03:27:35.915Z,16.00
2022-08-02T03:30:05.641Z,16.00
2022-08-02T03:32:35.974Z,16.00
2022-08-02T03:35:05.764Z,16.00
2022-08-02T03:37:34.909Z,16.00
2022-08-02T03:40:03.778Z,16.00
2022-08-02T03:42:32.475Z,16.00
2022-08-02T03:45:04.948Z,16.10
2022-08-02T03:47:38.758Z,16.10
2022-08-02T03:50:08.571Z,16.10
2022-08-02T03:52:36.950Z,16.10
2022-08-02T03:55:05.507Z,16.20
2022-08-02T03:57:33.549Z,16.10
2022-08-02T04:00:01.488Z,16.10
2022-08-02T04:02:29.394Z,16.00
2022-08-02T04:04:58.662Z,16.00
2022-08-02T04:08:02.724Z,16.00
2022-08-02T04:10:14.474Z,16.00
2022-08-02T04:12:42.457Z,16.00
2022-08-02T04:15:13.702Z,16.00
2022-08-02T04:17:44.777Z,16.00
2022-08-02T04:20:20.249Z,15.90
2022-08-02T04:22:52.363Z,15.90
2022-08-02T04:25:34.290Z,15.90
2022-08-02T04:28:17.430Z,15.90
2022-08-02T04:30:46.994Z,15.80
2022-08-02T04:33:15.447Z,15.80
2022-08-02T04:35:45.214Z,15.80
2022-08-02T04:38:15.057Z,15.90
2022-08-02T04:40:51.652Z,15.90
2022-08-02T04:43:19.571Z,15.90
2022-08-02T04:45:49.436Z,15.90
2022-08-02T04:48:17.354Z,15.90
2022-08-02T04:50:47.929Z,15.90
2022-08-02T04:53:15.925Z,15.90
2022-08-02T04:55:44.176Z,15.90
2022-08-02T04:58:37.385Z,15.90
2022-08-02T05:01:00.073Z,16.00
2022-08-02T05:03:28.071Z,16.00
2022-08-02T05:05:57.285Z,16.00
2022-08-02T05:08:25.171Z,16.00
2022-08-02T05:10:53.186Z,16.10
2022-08-02T05:13:21.081Z,16.10
2022-08-02T05:15:50.339Z,16.20
2022-08-02T05:18:18.388Z,16.20
2022-08-02T05:20:46.305Z,16.20
2022-08-02T05:23:15.553Z,16.30
2022-08-02T05:25:43.533Z,16.30
2022-08-02T05:28:11.906Z,16.30
2022-08-02T05:30:40.121Z,16.30
2022-08-02T05:33:08.504Z,16.40
2022-08-02T05:35:36.378Z,16.40
2022-08-02T05:38:04.837Z,16.50
2022-08-02T05:40:40.776Z,16.50
2022-08-02T05:43:23.346Z,16.50
2022-08-02T05:45:53.438Z,16.60
2022-08-02T05:48:21.827Z,16.60
2022-08-02T05:50:52.925Z,16.60
2022-08-02T05:53:29.198Z,16.70
2022-08-02T05:56:08.831Z,16.70
2022-08-02T05:58:51.143Z,16.80
2022-08-02T06:01:37.035Z,16.80
2022-08-02T06:04:08.489Z,16.90
2022-08-02T06:06:38.058Z,17.00
2022-08-02T06:09:10.979Z,17.00
2022-08-02T06:12:10.912Z,17.10
2022-08-02T06:14:33.816Z,17.20
2022-08-02T06:17:04.614Z,17.30
2022-08-02T06:19:46.848Z,17.40
2022-08-02T06:22:32.542Z,17.60
2022-08-02T06:25:04.994Z,17.70
2022-08-02T06:27:34.992Z,17.80
2022-08-02T06:30:04.213Z,17.90
2022-08-02T06:32:33.688Z,18.00
2022-08-02T06:35:01.652Z,18.10
2022-08-02T06:37:37.601Z,18.30
2022-08-02T06:40:15.363Z,18.40
2022-08-02T06:42:51.635Z,18.50
2022-08-02T06:45:19.847Z,18.50
2022-08-02T06:47:47.785Z,18.50
2022-08-02T06:50:15.678Z,18.70
2022-08-02T06:52:43.626Z,18.60
2022-08-02T06:55:11.712Z,18.70
2022-08-02T06:57:39.682Z,18.70
2022-08-02T07:00:10.451Z,18.70
2022-08-02T07:02:39.728Z,18.80
2022-08-02T07:05:08.787Z,18.90
2022-08-02T07:07:36.986Z,18.90
2022-08-02T07:10:05.962Z,19.00
2022-08-02T07:12:35.540Z,19.10
2022-08-02T07:15:05.614Z,19.20
2022-08-02T07:17:35.401Z,19.20
2022-08-02T07:20:03.730Z,19.30
2022-08-02T07:22:31.855Z,19.40
2022-08-02T07:25:01.090Z,19.40
2022-08-02T07:27:30.113Z,19.50
2022-08-02T07:29:58.349Z,19.60
2022-08-02T07:32:27.767Z,19.50
2022-08-02T07:34:57.448Z,19.60
2022-08-02T07:37:53.194Z,19.90
2022-08-02T07:40:19.968Z,19.90
2022-08-02T07:42:52.190Z,19.90
2022-08-02T07:45:20.946Z,20.10
2022-08-02T07:47:49.331Z,20.20
2022-08-02T07:50:20.532Z,20.40
2022-08-02T07:52:48.677Z,20.50
2022-08-02T07:55:18.762Z,20.50
2022-08-02T07:57:47.573Z,20.50
2022-08-02T08:00:17.352Z,20.60
2022-08-02T08:02:46.016Z,20.60
2022-08-02T08:05:14.298Z,20.60
2022-08-02T08:07:43.587Z,20.70
2022-08-02T08:10:12.426Z,20.80
2022-08-02T08:12:40.364Z,20.90
2022-08-02T08:15:09.209Z,20.90
2022-08-02T08:17:38.589Z,21.00
2022-08-02T08:20:07.833Z,21.10
2022-08-02T08:22:35.772Z,21.10
2022-08-02T08:25:05.442Z,21.20
2022-08-02T08:27:35.044Z,21.30
2022-08-02T08:30:04.470Z,21.30
2022-08-02T08:32:32.507Z,21.50
2022-08-02T08:35:00.399Z,21.50
2022-08-02T08:37:28.363Z,21.70
2022-08-02T08:39:58.883Z,21.80
2022-08-02T08:42:29.217Z,21.90
2022-08-02T08:44:58.507Z,22.00
2022-08-02T08:47:34.910Z,22.10
2022-08-02T08:50:06.416Z,22.10
2022-08-02T08:52:37.601Z,22.30
2022-08-02T08:55:06.577Z,22.40
2022-08-02T08:57:38.433Z,22.40
2022-08-02T09:00:07.451Z,22.50
2022-08-02T09:02:35.711Z,22.50
2022-08-02T09:05:03.781Z,22.60
2022-08-02T09:07:31.810Z,22.70
2022-08-02T09:09:59.732Z,22.60
2022-08-02T09:12:27.626Z,22.60
2022-08-02T09:14:56.887Z,22.80
2022-08-02T09:17:24.794Z,22.70
2022-08-02T09:20:08.293Z,22.80
2022-08-02T09:22:36.197Z,22.90
2022-08-02T09:25:04.463Z,23.00
2022-08-02T09:27:37.782Z,23.10
2022-08-02T09:30:14.346Z,23.00
2022-08-02T09:32:47.796Z,23.00
2022-08-02T09:36:06.476Z,23.10
2022-08-02T09:38:19.970Z,23.20
2022-08-02T09:40:47.864Z,23.30
2022-08-02T09:43:16.379Z,23.40
2022-08-02T09:45:45.678Z,23.30
2022-08-02T09:48:14.189Z,23.40
2022-08-02T09:50:42.960Z,23.40
2022-08-02T09:53:14.013Z,23.40
2022-08-02T09:55:42.426Z,23.50
2022-08-02T09:58:20.949Z,23.50
2022-08-02T10:00:59.021Z,23.70
2022-08-02T10:03:35.381Z,23.90
2022-08-02T10:06:05.637Z,23.80
2022-08-02T10:08:34.185Z,23.90
2022-08-02T10:11:03.408Z,24.10
2022-08-02T10:13:33.620Z,24.30
2022-08-02T10:16:04.010Z,24.20
2022-08-02T10:18:40.857Z,24.20
2022-08-02T10:21:20.498Z,24.20
2022-08-02T10:23:50.954Z,24.30
2022-08-02T10:26:20.359Z,24.50
2022-08-02T10:28:49.644Z,24.50
2022-08-02T10:31:24.111Z,24.70
2022-08-02T10:33:53.576Z,24.70
2022-08-02T10:36:23.696Z,24.80
2022-08-02T10:38:52.001Z,24.80
2022-08-02T10:41:45.033Z,25.00
2022-08-02T10:44:27.263Z,24.90
2022-08-02T10:47:17.380Z,25.10
2022-08-02T10:49:50.811Z,25.20
2022-08-02T10:52:19.182Z,25.50
2022-08-02T10:54:56.408Z,25.60
2022-08-02T10:57:26.454Z,25.60
2022-08-02T10:59:58.229Z,25.70
2022-08-02T11:02:45.026Z,25.90
2022-08-02T11:05:15.566Z,25.70
2022-08-02T11:07:47.281Z,25.60
2022-08-02T11:10:32.235Z,25.60
2022-08-02T11:13:02.662Z,25.50
2022-08-02T11:15:30.913Z,25.60
2022-08-02T11:18:00.360Z,25.80
2022-08-02T11:20:29.158Z,25.90
2022-08-02T11:23:17.181Z,26.00
2022-08-02T11:26:03.288Z,26.00
2022-08-02T11:28:32.213Z,26.10
2022-08-02T11:31:02.644Z,26.10
2022-08-02T11:33:36.075Z,26.20
2022-08-02T11:36:07.068Z,26.50
2022-08-02T11:38:35.598Z,26.40
2022-08-02T11:41:09.983Z,26.50
2022-08-02T11:43:39.480Z,26.50
2022-08-02T11:46:14.264Z,26.60
2022-08-02T11:48:43.929Z,26.90
2022-08-02T11:51:14.094Z,27.10
2022-08-02T11:53:47.107Z,27.00
2022-08-02T11:56:21.744Z,27.10
2022-08-02T11:59:03.719Z,27.30
2022-08-02T12:01:32.440Z,27.40
2022-08-02T12:04:18.286Z,27.80
2022-08-02T12:06:54.580Z,27.80
2022-08-02T12:09:24.302Z,27.90
2022-08-02T12:11:53.615Z,27.90
2022-08-02T12:14:21.961Z,28.10
2022-08-02T12:17:08.270Z,28.10
2022-08-02T12:19:36.846Z,28.20
2022-08-02T12:22:10.252Z,28.30
2022-08-02T12:24:39.251Z,28.40
2022-08-02T12:27:08.796Z,28.30
2022-08-02T12:29:55.788Z,28.50
2022-08-02T12:32:26.219Z,28.70
2022-08-02T12:35:04.323Z,28.80
2022-08-02T12:37:32.618Z,28.90
2022-08-02T12:40:18.251Z,29.00
2022-08-02T12:42:51.938Z,29.20
2022-08-02T12:45:20.115Z,29.10
2022-08-02T12:47:49.910Z,29.20
2022-08-02T12:50:20.875Z,29.30
2022-08-02T12:52:49.104Z,29.30
2022-08-02T12:55:19.308Z,29.20
2022-08-02T12:57:56.954Z,29.30
2022-08-02T13:00:26.715Z,29.60
2022-08-02T13:02:54.958Z,29.80
2022-08-02T13:05:23.059Z,30.00
2022-08-02T13:07:51.730Z,29.90
2022-08-02T13:10:20.212Z,30.00
2022-08-02T13:12:48.479Z,30.10
2022-08-02T13:15:50.310Z,29.80
2022-08-02T13:18:06.463Z,30.00
2022-08-02T13:20:34.425Z,30.00
2022-08-02T13:23:04.209Z,30.10
2022-08-02T13:25:32.290Z,30.00
2022-08-02T13:28:00.611Z,30.10
2022-08-02T13:30:30.831Z,30.10
2022-08-02T13:33:01.085Z,29.90
2022-08-02T13:35:30.175Z,29.90
2022-08-02T13:37:58.106Z,30.40
2022-08-02T13:40:26.697Z,31.00
2022-08-02T13:42:54.634Z,30.60
2022-08-02T13:45:22.835Z,30.80
2022-08-02T13:48:03.505Z,31.10
2022-08-02T13:50:33.959Z,31.00
2022-08-02T13:53:01.857Z,30.90
2022-08-02T13:55:30.279Z,30.80
2022-08-02T13:57:58.251Z,31.00
2022-08-02T14:00:35.089Z,30.80
2022-08-02T14:03:06.816Z,30.40
2022-08-02T14:05:39.321Z,30.60
2022-08-02T14:08:17.123Z,30.20
2022-08-02T14:10:46.090Z,30.20
2022-08-02T14:13:14.146Z,30.30
2022-08-02T14:15:42.959Z,30.60
2022-08-02T14:18:12.346Z,30.90
2022-08-02T14:20:40.244Z,31.00
2022-08-02T14:23:08.154Z,31.30
2022-08-02T14:25:36.136Z,31.90
2022-08-02T14:28:04.452Z,31.90
2022-08-02T14:30:32.420Z,32.10
2022-08-02T14:33:00.324Z,32.20
2022-08-02T14:35:29.626Z,32.40
2022-08-02T14:37:57.704Z,32.40
2022-08-02T14:40:27.846Z,32.30
2022-08-02T14:42:58.862Z,32.20
2022-08-02T14:45:36.596Z,32.10
2022-08-02T14:48:10.335Z,32.80
2022-08-02T14:50:39.612Z,33.20
2022-08-02T14:53:12.212Z,33.10
2022-08-02T14:55:41.436Z,32.90
2022-08-02T14:58:09.429Z,33.30
2022-08-02T15:00:40.856Z,33.50
2022-08-02T15:03:09.639Z,33.30
2022-08-02T15:05:39.030Z,33.90
2022-08-02T15:08:07.904Z,33.70
2022-08-02T15:10:35.865Z,33.10
2022-08-02T15:13:03.771Z,33.40
2022-08-02T15:15:31.703Z,33.90
2022-08-02T15:18:00.083Z,34.10
2022-08-02T15:20:28.425Z,34.00
2022-08-02T15:22:58.111Z,34.10
2022-08-02T15:25:26.891Z,34.50
2022-08-02T15:27:54.776Z,34.50
2022-08-02T15:30:22.953Z,34.40
2022-08-02T15:32:52.957Z,34.30
2022-08-02T15:35:21.793Z,34.60
2022-08-02T15:37:49.926Z,34.70
2022-08-02T15:40:19.176Z,34.60
2022-08-02T15:42:47.085Z,34.40
2022-08-02T15:45:15.867Z,34.60
2022-08-02T15:47:50.281Z,34.50
2022-08-02T15:50:18.643Z,34.70
2022-08-02T15:52:46.590Z,34.60
2022-08-02T15:55:14.682Z,34.60
2022-08-02T15:57:43.933Z,34.70
2022-08-02T16:00:14.103Z,34.00
2022-08-02T16:02:47.062Z,34.50
2022-08-02T16:05:17.717Z,34.50
2022-08-02T16:07:46.137Z,34.40
2022-08-02T16:10:14.218Z,33.70
2022-08-02T16:12:43.757Z,33.50
2022-08-02T16:15:12.616Z,33.40
2022-08-02T16:17:52.019Z,32.90
2022-08-02T16:20:22.756Z,32.70
2022-08-02T16:22:50.609Z,32.40
2022-08-02T16:25:18.677Z,32.00
2022-08-02T16:28:06.232Z,31.70
2022-08-02T16:30:36.027Z,31.60
2022-08-02T16:33:04.245Z,31.60
2022-08-02T16:35:32.145Z,31.50
2022-08-02T16:38:00.021Z,31.20
2022-08-02T16:40:27.946Z,30.90
2022-08-02T16:42:57.476Z,30.80
2022-08-02T16:45:25.347Z,30.80
2022-08-02T16:47:54.943Z,30.60
2022-08-02T16:50:28.105Z,30.60
2022-08-02T16:52:57.781Z,30.40
2022-08-02T16:55:26.317Z,30.40
2022-08-02T16:58:00.473Z,30.60
2022-08-02T17:00:29.558Z,30.20
2022-08-02T17:02:59.645Z,30.30
2022-08-02T17:05:56.565Z,30.20
2022-08-02T17:08:31.776Z,30.10
2022-08-02T17:11:03.716Z,30.10
2022-08-02T17:13:34.317Z,29.90
2022-08-02T17:16:25.920Z,30.00
2022-08-02T17:18:54.665Z,29.90
2022-08-02T17:21:22.769Z,29.80
2022-08-02T17:24:07.635Z,29.70
2022-08-02T17:26:39.112Z,29.50
2022-08-02T17:29:16.503Z,29.50
2022-08-02T17:32:04.769Z,29.40
2022-08-02T17:34:35.465Z,29.30
2022-08-02T17:37:05.880Z,29.50
2022-08-02T17:39:44.167Z,29.30
2022-08-02T17:42:23.233Z,29.40
2022-08-02T17:44:54.553Z,29.20
2022-08-02T17:47:22.808Z,29.50
2022-08-02T17:49:59.709Z,29.50
2022-08-02T17:52:52.539Z,29.60
2022-08-02T17:55:17.330Z,29.60
2022-08-02T17:57:57.992Z,29.50
2022-08-02T18:00:33.890Z,29.20
2022-08-02T18:03:05.509Z,29.20
2022-08-02T18:05:40.148Z,28.70
2022-08-02T18:08:13.958Z,28.30
2022-08-02T18:10:42.181Z,28.20
2022-08-02T18:13:12.179Z,28.10
2022-08-02T18:15:41.447Z,28.00
2022-08-02T18:18:13.484Z,28.00
2022-08-02T18:20:42.629Z,27.90
2022-08-02T18:23:13.703Z,27.90
2022-08-02T18:25:45.754Z,27.80
2022-08-02T18:28:14.759Z,27.90
2022-08-02T18:30:45.485Z,27.70
2022-08-02T18:33:58.884Z,27.60
2022-08-02T18:36:01.321Z,27.30
2022-08-02T18:38:30.995Z,27.10
2022-08-02T18:41:02.615Z,27.10
2022-08-02T18:43:30.918Z,27.20
2022-08-02T18:46:15.456Z,26.90
2022-08-02T18:48:46.485Z,27.00
2022-08-02T18:51:15.775Z,26.80
2022-08-02T18:53:44.295Z,26.60
2022-08-02T18:56:19.793Z,26.50
2022-08-02T18:58:52.531Z,26.40
2022-08-02T19:01:31.974Z,26.10
2022-08-02T19:04:01.952Z,26.00
2022-08-02T19:06:30.314Z,26.00
2022-08-02T19:08:59.706Z,25.90
2022-08-02T19:11:34.994Z,25.80
2022-08-02T19:14:03.573Z,25.50
2022-08-02T19:16:37.550Z,25.50
2022-08-02T19:19:07.081Z,25.40
2022-08-02T19:22:16.176Z,25.30
2022-08-02T19:24:22.960Z,25.10
2022-08-02T19:26:52.511Z,25.10
2022-08-02T19:29:42.028Z,25.10
2022-08-02T19:32:40.357Z,24.90
2022-08-02T19:35:00.216Z,24.90
2022-08-02T19:37:36.942Z,24.90
2022-08-02T19:40:07.884Z,24.70
2022-08-02T19:44:23.242Z,24.60
2022-08-02T19:48:15.710Z,24.50
2022-08-02T19:50:49.144Z,24.50
2022-08-02T19:53:17.983Z,24.40
2022-08-02T19:56:01.239Z,24.30
2022-08-02T19:58:36.664Z,24.20
2022-08-02T20:01:05.347Z,24.10
2022-08-02T20:03:51.246Z,24.00
2022-08-02T20:06:29.376Z,23.90
2022-08-02T20:08:58.895Z,23.90
2022-08-02T20:11:27.405Z,23.70
2022-08-02T20:13:55.317Z,23.70
2022-08-02T20:16:27.726Z,23.70
2022-08-02T20:18:57.728Z,23.70
2022-08-02T20:21:36.103Z,23.50
2022-08-02T20:24:07.156Z,23.60
2022-08-02T20:26:35.689Z,23.50
2022-08-02T20:29:06.066Z,23.50
2022-08-02T20:31:36.240Z,23.50
2022-08-02T20:34:07.280Z,23.40
2022-08-02T20:36:35.361Z,23.30
2022-08-02T20:39:03.360Z,23.20
2022-08-02T20:41:37.307Z,23.10
2022-08-02T20:44:15.728Z,23.10
2022-08-02T20:46:59.146Z,23.20
2022-08-02T20:49:41.126Z,22.90
2022-08-02T20:52:23.820Z,22.90
2022-08-02T20:54:53.033Z,22.90
2022-08-02T20:57:48.810Z,22.80
2022-08-02T21:00:10.647Z,22.80
2022-08-02T21:02:38.573Z,22.80
2022-08-02T21:05:17.517Z,22.70
2022-08-02T21:07:47.569Z,22.80
2022-08-02T21:10:16.196Z,22.70
2022-08-02T21:12:45.351Z,22.60
2022-08-02T21:15:13.663Z,22.70
2022-08-02T21:17:46.657Z,22.60
2022-08-02T21:20:27.158Z,22.50
2022-08-02T21:22:55.621Z,22.40
2022-08-02T21:25:23.993Z,22.40
2022-08-02T21:28:13.580Z,22.40
2022-08-02T21:30:46.049Z,22.50
2022-08-02T21:33:18.063Z,22.30
2022-08-02T21:35:53.193Z,22.30
2022-08-02T21:38:35.805Z,22.30
2022-08-02T21:41:06.302Z,22.20
2022-08-02T21:43:40.367Z,22.20
2022-08-02T21:46:14.634Z,22.10
2022-08-02T21:48:42.763Z,22.20
2022-08-02T21:51:15.748Z,22.20
2022-08-02T21:53:44.272Z,22.10
2022-08-02T21:56:32.145Z,22.00
2022-08-02T21:59:00.589Z,22.00
2022-08-02T22:01:53.076Z,22.00
2022-08-02T22:04:21.760Z,22.00
2022-08-02T22:06:53.586Z,22.00
2022-08-02T22:09:44.013Z,22.00
2022-08-02T22:12:16.461Z,21.90
2022-08-02T22:14:53.872Z,21.90
2022-08-02T22:17:30.406Z,21.90
2022-08-02T22:20:13.585Z,21.90
2022-08-02T22:22:43.110Z,21.80
2022-08-02T22:25:27.097Z,21.80
2022-08-02T22:28:11.762Z,21.70
2022-08-02T22:30:52.494Z,21.70
2022-08-02T22:33:46.634Z,21.70
2022-08-02T22:36:16.079Z,21.60
2022-08-02T22:38:48.179Z,21.60
2022-08-02T22:41:16.543Z,21.60
2022-08-02T22:43:44.805Z,21.50
2022-08-02T22:46:15.659Z,21.50
2022-08-02T22:48:46.674Z,21.50
2022-08-02T22:51:15.148Z,21.50
2022-08-02T22:53:43.763Z,21.50
2022-08-02T22:56:14.080Z,21.70
2022-08-02T22:58:53.028Z,24.60
2022-08-02T23:01:36.181Z,21.80
2022-08-02T23:04:08.882Z,21.40
2022-08-02T23:06:36.774Z,21.40
2022-08-02T23:09:04.774Z,21.40
2022-08-02T23:11:34.119Z,21.30
2022-08-02T23:14:02.021Z,21.30
2022-08-02T23:16:47.278Z,21.30
2022-08-02T23:19:32.944Z,21.30
2022-08-02T23:22:02.301Z,21.20
2022-08-02T23:24:33.083Z,21.30
2022-08-02T23:27:02.810Z,21.20
2022-08-02T23:29:30.817Z,21.30
2022-08-02T23:31:59.068Z,21.20
2022-08-02T23:34:27.060Z,21.20
2022-08-02T23:36:55.050Z,21.10
2022-08-02T23:39:22.953Z,21.10
2022-08-02T23:41:55.043Z,21.10
2022-08-02T23:44:24.937Z,21.10
2022-08-02T23:46:54.294Z,21.00
2022-08-02T23:49:23.163Z,20.90
2022-08-02T23:51:51.873Z,21.00
2022-08-02T23:54:20.213Z,21.00
2022-08-02T23:56:48.182Z,20.90
2022-08-02T23:59:16.155Z,21.00
